KVNY/VNY METAR and TAF weather

Enter ICAO airport designator
Station Type Date Time Source
KVNY METAR 2020/09/22 20:51 UTC NOAA

KVNY 222051Z AUTO VRB03KT 10SM CLR 33/03 A2998 RMK AO2 SLP142 T03330033 58015


Station Type Date Time Source
KVNY Decoded METAR 2020/09/22 20:51 UTC NOAA

VAN NUYS AIRPORT, CA, United States (KVNY) 34-13N 118-29W 245M
Sep 22, 2020 - 04:51 PM EDT / 2020.09.22 2051 UTC
Wind: Variable at 3 MPH (3 KT):0
Visibility: 10 mile(s):0
Sky conditions: clear
Temperature: 91.9 F (33.3 C)
Dew Point: 37.9 F (3.3 C)
Relative Humidity: 15%
Pressure (altimeter): 29.98 in. Hg (1015 hPa)
Pressure tendency: 0.04 inches (1.5 hPa) lower than three hours ago
ob: KVNY 222051Z AUTO VRB03KT 10SM CLR 33/03 A2998 RMK AO2 SLP142 T03330033 58015
cycle: 21

Station Type Date Time Source
KVNY TAF 2020/09/22 18:30 UTC NOAA

TAF KVNY 221728Z 2218/2318 00000KT 6SM HZ SKC
FM222000 14008KT P6SM SKC
FM230600 VRB03KT P6SM SKC
FM231200 00000KT P6SM SKC

Example: see airport list